Terminal Aerodrome Forecast
Issued by NWS Portland, OR

Home | Current Version | Previous Version | Text Only | Print | Product List | Glossary On
Versions: 1 2 3 4 5 6 7 8 9 10 11 12 13 14 15 16 17 18
000
FTUS46 KPQR 221132
TAFEUG
TAF
KEUG 221132Z 2212/2312 20005KT P6SM FEW035 BKN060 OVC100
      TEMPO 2214/2218 -RA
     FM221800 18005KT P6SM -RA SCT040 BKN060 OVC100
     FM230600 19008KT P6SM -RA BKN035 OVC050=

USA.gov is the U.S. government's official web portal to all federal, state and local government web resources and services.